Duane, New York
Current Conditions -  °F | °C
As of 12:51 PM on Tuesday 21 Oct 2014 (Local Time) from KSLK Reporting Station
Light Rain Light Rain  
Wind Chill: 40°   Ceiling: 500
Heat Index: 44°   Visibility: 5mi
Dew Point: 42°   Wind: 7mph
Humidity: 93%   Direction: 60°ENE
Pressure: 29.93"   Gusts: NA
Location:  44.7347°N, 74.2672°W
Report Text: KSLK 211651Z AUTO 06006KT 5SM -RA BR OVC005 07/06 A2993 RMK AO2 SLP143 P0003 T00670056
Loading
Personal Weather Stations






























Interactive Weather Map
Tropical Storm Tracking
New forecast layout! Learn more

10-Day Weather Forecast

Advertisements
Track Severe Weather on mobile